TimeEST,TemperatureF,Dew PointF,Humidity,Sea Level PressureIn,VisibilityMPH,Wind Direction,Wind SpeedMPH,Gust SpeedMPH,PrecipitationIn,Events,Conditions,WindDirDegrees,DateUTC
12:24 AM,33.8,33.8,100,29.64,10.0,WNW,8.1,-,N/A,Rain,Light Rain,290,2012-12-19 05:24:00
12:55 AM,34.2,34.2,100,29.64,10.0,WNW,10.4,17.3,0.01,Rain,Light Rain,290,2012-12-19 05:55:00
1:55 AM,34.3,34.3,100,29.66,10.0,WNW,8.1,-,0.02,Rain,Light Rain,300,2012-12-19 06:55:00
2:34 AM,33.8,33.8,100,29.68,10.0,WNW,8.1,-,N/A,,Light Drizzle,290,2012-12-19 07:34:00
2:55 AM,34.5,34.5,100,29.69,10.0,Variable,6.9,-,0.01,,Light Drizzle,0,2012-12-19 07:55:00
3:00 AM,33.8,33.8,100,29.69,10.0,WNW,6.9,-,N/A,,Overcast,290,2012-12-19 08:00:00
3:55 AM,34.7,34.7,100,29.70,10.0,WNW,8.1,-,0.00,,Overcast,290,2012-12-19 08:55:00
3:56 AM,35.6,35.6,100,29.70,10.0,West,8.1,-,N/A,,Overcast,280,2012-12-19 08:56:00
3:57 AM,35.6,35.6,100,29.70,10.0,WNW,8.1,-,N/A,,Overcast,290,2012-12-19 08:57:00
4:02 AM,35.6,35.6,100,29.70,10.0,West,5.8,-,N/A,,Overcast,280,2012-12-19 09:02:00
4:21 AM,33.8,33.8,100,29.71,10.0,WNW,6.9,-,N/A,,Overcast,290,2012-12-19 09:21:00
4:55 AM,34.2,34.2,100,29.72,10.0,West,5.8,-,0.00,,Overcast,280,2012-12-19 09:55:00
5:55 AM,33.8,33.6,99,29.75,10.0,West,9.2,-,N/A,,Overcast,280,2012-12-19 10:55:00
5:59 AM,33.8,33.8,100,29.75,10.0,West,6.9,-,N/A,,Overcast,280,2012-12-19 10:59:00
6:16 AM,33.8,33.8,100,29.76,10.0,West,6.9,-,N/A,,Overcast,280,2012-12-19 11:16:00
6:46 AM,33.8,33.8,100,29.77,10.0,West,6.9,-,N/A,,Overcast,280,2012-12-19 11:46:00
6:55 AM,33.4,33.3,99,29.77,10.0,WNW,6.9,-,N/A,,Overcast,290,2012-12-19 11:55:00
7:27 AM,33.8,33.8,100,29.78,10.0,WNW,5.8,-,N/A,,Overcast,290,2012-12-19 12:27:00
7:55 AM,33.4,33.3,99,29.80,10.0,West,6.9,-,N/A,,Overcast,280,2012-12-19 12:55:00
8:07 AM,33.8,33.8,100,29.80,10.0,West,5.8,-,N/A,,Overcast,280,2012-12-19 13:07:00
8:55 AM,33.8,33.3,98,29.81,10.0,WNW,4.6,-,N/A,,Overcast,290,2012-12-19 13:55:00
9:35 AM,33.8,33.8,100,29.83,10.0,WNW,6.9,-,N/A,,Overcast,290,2012-12-19 14:35:00
9:48 AM,33.8,33.8,100,29.84,10.0,NW,4.6,-,N/A,,Overcast,320,2012-12-19 14:48:00
9:55 AM,34.0,33.4,98,29.85,10.0,WNW,3.5,-,N/A,,Overcast,300,2012-12-19 14:55:00
10:39 AM,33.8,33.8,100,29.86,10.0,WNW,5.8,-,N/A,,Overcast,290,2012-12-19 15:39:00
10:55 AM,34.5,33.4,96,29.87,10.0,WNW,8.1,-,N/A,,Overcast,290,2012-12-19 15:55:00
11:55 AM,34.7,32.4,91,29.89,10.0,WNW,8.1,-,N/A,,Overcast,290,2012-12-19 16:55:00
12:22 PM,35.6,32.0,87,29.90,10.0,WNW,4.6,-,N/A,,Overcast,290,2012-12-19 17:22:00
12:23 PM,35.6,32.0,87,29.90,10.0,WNW,4.6,-,N/A,,Overcast,290,2012-12-19 17:23:00
12:36 PM,35.6,32.0,87,29.90,10.0,WNW,8.1,-,N/A,,Overcast,300,2012-12-19 17:36:00
12:38 PM,35.6,32.0,87,29.90,10.0,WNW,6.9,-,N/A,Rain,Light Rain,300,2012-12-19 17:38:00
12:42 PM,35.6,32.0,87,29.90,10.0,WNW,4.6,-,N/A,Rain,Light Rain,300,2012-12-19 17:42:00
12:49 PM,35.6,32.0,87,29.90,10.0,WNW,5.8,-,N/A,,Overcast,300,2012-12-19 17:49:00
12:50 PM,35.6,32.0,87,29.90,10.0,WNW,5.8,-,N/A,,Overcast,290,2012-12-19 17:50:00
12:55 PM,35.4,31.5,85,29.91,10.0,NW,6.9,-,0.00,,Overcast,310,2012-12-19 17:55:00
1:11 PM,35.6,30.2,81,29.91,10.0,WNW,6.9,-,N/A,,Overcast,290,2012-12-19 18:11:00
1:19 PM,35.6,32.0,87,29.91,10.0,West,9.2,-,N/A,,Overcast,280,2012-12-19 18:19:00
1:27 PM,35.6,32.0,87,29.92,10.0,WNW,5.8,-,N/A,,Overcast,300,2012-12-19 18:27:00
1:55 PM,35.2,31.3,85,29.93,10.0,WNW,9.2,-,N/A,,Overcast,300,2012-12-19 18:55:00
1:57 PM,35.6,30.2,81,29.93,10.0,WNW,9.2,-,N/A,,Overcast,300,2012-12-19 18:57:00
2:01 PM,35.6,30.2,81,29.94,10.0,WNW,8.1,-,N/A,,Overcast,300,2012-12-19 19:01:00
2:11 PM,35.6,30.2,81,29.95,10.0,NW,9.2,-,N/A,,Overcast,310,2012-12-19 19:11:00
2:55 PM,34.7,29.7,82,29.97,10.0,NNW,8.1,-,N/A,,Overcast,330,2012-12-19 19:55:00
2:59 PM,33.8,30.2,87,29.98,10.0,NNW,6.9,-,N/A,,Overcast,330,2012-12-19 19:59:00
3:01 PM,33.8,30.2,87,29.98,10.0,NW,6.9,-,N/A,,Overcast,320,2012-12-19 20:01:00
3:12 PM,33.8,30.2,87,29.98,10.0,NNW,6.9,-,N/A,,Overcast,330,2012-12-19 20:12:00
3:15 PM,33.8,30.2,87,29.99,10.0,NW,6.9,-,N/A,,Overcast,320,2012-12-19 20:15:00
3:31 PM,33.8,30.2,87,30.00,10.0,NW,4.6,-,N/A,,Overcast,320,2012-12-19 20:31:00
3:39 PM,35.6,30.2,81,30.00,10.0,NW,5.8,-,N/A,,Overcast,310,2012-12-19 20:39:00
3:53 PM,35.6,30.2,81,30.00,10.0,NW,4.6,-,N/A,,Overcast,320,2012-12-19 20:53:00
3:55 PM,34.7,30.0,83,30.01,10.0,NW,3.5,-,N/A,,Overcast,310,2012-12-19 20:55:00
4:19 PM,33.8,30.2,87,30.02,10.0,NW,3.5,-,N/A,,Overcast,320,2012-12-19 21:19:00
4:55 PM,33.8,29.7,85,30.04,10.0,NW,4.6,-,N/A,,Overcast,320,2012-12-19 21:55:00
4:57 PM,33.8,30.2,87,30.04,10.0,NW,4.6,-,N/A,,Overcast,320,2012-12-19 21:57:00
5:13 PM,33.8,30.2,87,30.05,10.0,NNW,5.8,-,N/A,,Overcast,340,2012-12-19 22:13:00
5:45 PM,33.8,28.4,81,30.07,10.0,NNW,9.2,-,N/A,,Overcast,330,2012-12-19 22:45:00
5:54 PM,33.8,28.4,81,30.07,10.0,NNW,6.9,-,N/A,,Overcast,340,2012-12-19 22:54:00
5:55 PM,33.4,28.8,83,30.07,10.0,North,6.9,-,0.00,,Overcast,350,2012-12-19 22:55:00
6:25 PM,32.0,26.6,80,30.09,10.0,North,8.1,-,N/A,,Overcast,350,2012-12-19 23:25:00
6:55 PM,32.2,26.8,80,30.11,10.0,NNW,6.9,-,N/A,,Overcast,340,2012-12-19 23:55:00
7:55 PM,31.3,24.4,76,30.14,10.0,NNW,10.4,18.4,N/A,,Overcast,340,2012-12-20 00:55:00
8:55 PM,28.8,22.1,76,30.15,10.0,NNW,5.8,-,N/A,,Clear,340,2012-12-20 01:55:00
9:55 PM,27.0,23.0,85,30.18,10.0,Calm,Calm,-,N/A,,Clear,0,2012-12-20 02:55:00
10:55 PM,26.2,22.8,87,30.19,10.0,Calm,Calm,-,N/A,,Clear,0,2012-12-20 03:55:00
11:55 PM,24.1,21.6,90,30.19,10.0,SW,3.5,-,N/A,,Clear,230,2012-12-20 04:55:00